createdAt,value
2018-09-20T08:25:25.655Z,24.00
2018-09-20T08:27:54.260Z,24.10
2018-09-20T08:30:22.878Z,24.30
2018-09-20T08:32:51.508Z,24.40
2018-09-20T08:35:20.135Z,24.40
2018-09-20T08:37:48.804Z,24.60
2018-09-20T08:40:17.743Z,24.70
2018-09-20T08:42:47.294Z,24.80
2018-09-20T08:45:19.656Z,25.00
2018-09-20T08:47:49.193Z,25.10
2018-09-20T08:50:17.921Z,25.20
2018-09-20T08:52:46.672Z,25.40
2018-09-20T08:55:15.246Z,25.60
2018-09-20T08:57:50.442Z,25.80
2018-09-20T09:00:19.202Z,25.90
2018-09-20T09:02:50.188Z,26.00
2018-09-20T09:05:18.910Z,26.00
2018-09-20T09:07:48.376Z,26.10
2018-09-20T09:10:16.969Z,26.30
2018-09-20T09:12:45.565Z,26.40
2018-09-20T09:15:14.892Z,26.50
2018-09-20T09:17:44.049Z,26.60
2018-09-20T09:20:15.295Z,26.80
2018-09-20T09:22:43.902Z,26.80
2018-09-20T09:25:13.026Z,27.00
2018-09-20T09:27:41.633Z,27.20
2018-09-20T09:30:10.236Z,27.10
2018-09-20T09:32:38.797Z,27.20
2018-09-20T09:35:07.386Z,27.30
2018-09-20T09:37:36.748Z,27.40
2018-09-20T09:40:05.408Z,27.50
2018-09-20T09:42:35.057Z,27.30
2018-09-20T09:45:03.658Z,27.30
2018-09-20T09:47:32.268Z,27.50
2018-09-20T09:50:00.862Z,27.60
2018-09-20T09:52:29.507Z,27.80
2018-09-20T09:54:58.108Z,28.10
2018-09-20T09:57:26.700Z,28.30
2018-09-20T09:59:55.314Z,28.20
2018-09-20T10:02:23.928Z,28.20
2018-09-20T10:04:52.575Z,28.30
2018-09-20T10:07:21.547Z,28.30
2018-09-20T10:09:50.881Z,28.50
2018-09-20T10:12:20.224Z,28.60
2018-09-20T10:14:48.803Z,28.80
2018-09-20T10:17:17.458Z,28.90
2018-09-20T10:19:46.183Z,28.90
2018-09-20T10:22:14.785Z,28.90
2018-09-20T10:24:43.519Z,28.90
2018-09-20T10:27:14.147Z,28.70
2018-09-20T10:29:50.424Z,28.80
2018-09-20T10:32:19.801Z,28.80
2018-09-20T10:34:51.352Z,28.80
2018-09-20T10:37:22.753Z,28.90
2018-09-20T10:39:51.862Z,28.80
2018-09-20T10:42:21.453Z,28.80
2018-09-20T10:44:50.715Z,28.90
2018-09-20T10:47:22.361Z,28.90
2018-09-20T10:49:52.827Z,29.00
2018-09-20T10:52:22.338Z,29.00
2018-09-20T10:54:52.655Z,28.90
2018-09-20T10:57:21.301Z,29.00
2018-09-20T10:59:56.023Z,29.20
2018-09-20T11:02:25.416Z,29.10
2018-09-20T11:04:59.054Z,29.10
2018-09-20T11:07:29.393Z,29.10
2018-09-20T11:10:02.757Z,29.10
2018-09-20T11:12:32.398Z,29.00
2018-09-20T11:15:04.210Z,29.00
2018-09-20T11:17:34.828Z,29.10
2018-09-20T11:20:05.090Z,29.30
2018-09-20T11:22:35.762Z,29.20
2018-09-20T11:25:09.550Z,29.10
2018-09-20T11:27:39.423Z,29.30
2018-09-20T11:30:12.300Z,29.70
2018-09-20T11:32:42.426Z,29.80
2018-09-20T11:35:15.315Z,29.80
2018-09-20T11:37:46.204Z,29.80
2018-09-20T11:40:17.107Z,29.80
2018-09-20T11:42:48.077Z,29.80
2018-09-20T11:45:18.890Z,29.70
2018-09-20T11:47:49.176Z,29.80
2018-09-20T11:50:22.954Z,29.90
2018-09-20T11:52:53.996Z,30.10
2018-09-20T11:55:27.708Z,30.10
2018-09-20T11:57:56.412Z,30.00
2018-09-20T12:00:29.829Z,29.40
2018-09-20T12:02:59.189Z,29.10
2018-09-20T12:05:28.672Z,29.20
2018-09-20T12:08:04.817Z,29.40
2018-09-20T12:10:34.324Z,29.70
2018-09-20T12:13:03.914Z,29.80
2018-09-20T12:15:35.812Z,30.20
2018-09-20T12:18:10.266Z,30.00
2018-09-20T12:20:38.858Z,29.80
2018-09-20T12:23:10.755Z,29.80
2018-09-20T12:25:43.143Z,29.90
2018-09-20T12:28:13.580Z,29.80
2018-09-20T12:30:47.314Z,29.80
2018-09-20T12:33:16.867Z,29.70
2018-09-20T12:35:49.833Z,29.60
2018-09-20T12:38:19.566Z,29.40
2018-09-20T12:40:49.418Z,29.40
2018-09-20T12:43:18.745Z,29.40
2018-09-20T12:45:47.321Z,29.20
2018-09-20T12:48:18.141Z,29.00
2018-09-20T12:50:48.637Z,29.00
2018-09-20T12:53:17.282Z,29.10
2018-09-20T12:55:47.207Z,29.10
2018-09-20T12:58:15.825Z,29.00
2018-09-20T13:00:49.051Z,29.00
2018-09-20T13:03:17.701Z,28.70
2018-09-20T13:05:48.785Z,28.60
2018-09-20T13:08:21.377Z,28.60
2018-09-20T13:10:50.828Z,28.50
2018-09-20T13:13:23.734Z,28.50
2018-09-20T13:15:52.589Z,28.60
2018-09-20T13:18:22.852Z,28.90
2018-09-20T13:20:53.008Z,29.00
2018-09-20T13:23:25.845Z,29.30
2018-09-20T13:25:57.262Z,29.40
2018-09-20T13:28:27.751Z,29.50
2018-09-20T13:30:58.602Z,29.50
2018-09-20T13:33:31.088Z,29.60
2018-09-20T13:36:01.877Z,29.70
2018-09-20T13:38:32.634Z,29.60
2018-09-20T13:41:03.949Z,29.60
2018-09-20T13:43:33.151Z,29.60
2018-09-20T13:46:01.765Z,29.50
2018-09-20T13:48:31.403Z,29.20
2018-09-20T13:51:00.877Z,29.10
2018-09-20T13:53:30.791Z,29.00
2018-09-20T13:56:05.524Z,29.00
2018-09-20T13:58:35.570Z,28.90
2018-09-20T14:01:05.973Z,28.70
2018-09-20T14:03:36.296Z,28.50
2018-09-20T14:06:05.851Z,28.40
2018-09-20T14:08:38.617Z,28.30
2018-09-20T14:11:08.003Z,28.20
2018-09-20T14:13:36.608Z,28.10
2018-09-20T14:16:05.188Z,28.00
2018-09-20T14:18:34.381Z,28.00
2018-09-20T14:21:04.850Z,27.90
2018-09-20T14:23:33.522Z,27.80
2018-09-20T14:26:03.026Z,27.70
2018-09-20T14:28:35.214Z,27.60
2018-09-20T14:31:03.811Z,27.70
2018-09-20T14:33:32.401Z,27.70
2018-09-20T14:36:01.974Z,27.80
2018-09-20T14:38:33.442Z,27.80
2018-09-20T14:41:02.182Z,27.90
2018-09-20T14:43:31.564Z,28.10
2018-09-20T14:46:02.361Z,28.20
2018-09-20T14:48:31.706Z,28.20
2018-09-20T14:51:01.161Z,28.20
2018-09-20T14:53:29.796Z,28.20
2018-09-20T14:55:59.037Z,28.20
2018-09-20T14:58:27.731Z,28.20
2018-09-20T15:00:58.228Z,28.20
2018-09-20T15:03:28.835Z,28.20
2018-09-20T15:05:58.124Z,28.20
2018-09-20T15:08:26.859Z,28.20
2018-09-20T15:10:57.544Z,28.20
2018-09-20T15:13:26.136Z,28.20
2018-09-20T15:15:55.698Z,28.20
2018-09-20T15:18:24.340Z,28.20
2018-09-20T15:20:58.736Z,28.20
2018-09-20T15:23:28.004Z,28.20
2018-09-20T15:25:57.848Z,28.10
2018-09-20T15:28:27.494Z,27.90
2018-09-20T15:30:58.879Z,27.80
2018-09-20T15:33:33.737Z,27.80
2018-09-20T15:36:06.201Z,27.60
2018-09-20T15:38:42.311Z,27.50
2018-09-20T15:41:12.848Z,27.50
2018-09-20T15:43:43.033Z,27.40
2018-09-20T15:46:12.974Z,27.30
2018-09-20T15:48:53.928Z,27.30
2018-09-20T15:51:30.756Z,27.30
2018-09-20T15:54:02.025Z,27.20
2018-09-20T15:56:34.304Z,27.20
2018-09-20T15:59:06.010Z,27.20
2018-09-20T16:01:35.551Z,27.20
2018-09-20T16:04:06.143Z,27.30
2018-09-20T16:06:34.907Z,27.30
2018-09-20T16:09:09.859Z,27.20
2018-09-20T16:11:40.975Z,27.10
2018-09-20T16:14:09.765Z,27.10
2018-09-20T16:16:41.106Z,27.00
2018-09-20T16:19:12.795Z,27.00
2018-09-20T16:21:45.401Z,27.00
2018-09-20T16:24:19.032Z,26.90
2018-09-20T16:26:49.479Z,26.90
2018-09-20T16:29:44.553Z,26.80
2018-09-20T16:32:36.408Z,26.80
2018-09-20T16:35:21.243Z,26.70
2018-09-20T16:38:08.531Z,26.60
2018-09-20T16:40:42.127Z,26.50
2018-09-20T16:43:10.949Z,26.50
2018-09-20T16:45:39.517Z,26.40
2018-09-20T16:48:08.174Z,26.30
2018-09-20T16:50:36.777Z,26.20
2018-09-20T16:53:05.512Z,26.10
2018-09-20T16:55:36.795Z,26.00
2018-09-20T16:58:05.544Z,25.80
2018-09-20T17:00:34.546Z,25.70
2018-09-20T17:03:08.751Z,25.60
2018-09-20T17:05:38.425Z,25.50
2018-09-20T17:08:10.137Z,25.30
2018-09-20T17:10:41.612Z,25.20
2018-09-20T17:13:12.297Z,25.00
2018-09-20T17:15:46.424Z,24.90
2018-09-20T17:18:15.359Z,24.80
2018-09-20T17:20:47.507Z,24.60
2018-09-20T17:23:16.791Z,24.40
2018-09-20T17:25:47.433Z,24.30
2018-09-20T17:28:18.162Z,24.10
2018-09-20T17:31:09.127Z,24.00
2018-09-20T17:33:42.621Z,23.90
2018-09-20T17:36:14.521Z,23.80
2018-09-20T17:38:44.110Z,23.60
2018-09-20T17:41:16.314Z,23.50
2018-09-20T17:43:54.479Z,23.40
2018-09-20T17:46:26.608Z,23.30
2018-09-20T17:48:55.154Z,23.20
2018-09-20T17:51:27.216Z,23.10
2018-09-20T17:53:57.595Z,23.00
2018-09-20T17:56:27.385Z,23.00
2018-09-20T17:59:03.952Z,22.90
2018-09-20T18:01:40.562Z,22.80
2018-09-20T18:04:12.171Z,22.80
2018-09-20T18:06:40.723Z,22.70
2018-09-20T18:09:22.209Z,22.70
2018-09-20T18:11:50.762Z,22.60
2018-09-20T18:14:21.236Z,22.50
2018-09-20T18:16:53.807Z,22.40
2018-09-20T18:19:25.053Z,22.40
2018-09-20T18:21:57.305Z,22.40
2018-09-20T18:24:26.546Z,22.30
2018-09-20T18:26:56.969Z,22.30
2018-09-20T18:29:25.878Z,22.40
2018-09-20T18:31:54.437Z,22.40
2018-09-20T18:34:23.907Z,22.30
2018-09-20T18:36:53.229Z,22.30
2018-09-20T18:39:25.331Z,22.20
2018-09-20T18:41:54.052Z,22.20
2018-09-20T18:44:22.589Z,22.20
2018-09-20T18:46:52.635Z,22.10
2018-09-20T18:49:21.216Z,22.20
2018-09-20T18:51:50.848Z,22.10
2018-09-20T18:54:21.553Z,22.10
2018-09-20T18:56:50.546Z,22.00
2018-09-20T18:59:19.157Z,21.90
2018-09-20T19:01:47.907Z,21.90
2018-09-20T19:04:19.455Z,21.90
2018-09-20T19:06:48.024Z,21.80
2018-09-20T19:09:16.591Z,21.70
2018-09-20T19:11:46.926Z,21.60
2018-09-20T19:14:16.575Z,21.60
2018-09-20T19:16:45.242Z,21.60
2018-09-20T19:19:13.886Z,21.50
2018-09-20T19:21:43.665Z,21.40
2018-09-20T19:24:12.235Z,21.30
2018-09-20T19:26:47.559Z,21.30
2018-09-20T19:29:22.918Z,21.40
2018-09-20T19:31:51.507Z,21.60
2018-09-20T19:34:21.749Z,21.60
2018-09-20T19:36:50.286Z,21.60
2018-09-20T19:39:18.945Z,21.60
2018-09-20T19:41:48.427Z,21.60
2018-09-20T19:44:18.403Z,21.60
2018-09-20T19:46:48.247Z,21.50
2018-09-20T19:49:17.450Z,21.50
2018-09-20T19:51:47.701Z,21.50
2018-09-20T19:54:19.572Z,21.50
2018-09-20T19:56:49.079Z,21.50
2018-09-20T19:59:18.607Z,21.60
2018-09-20T20:01:47.880Z,21.60
2018-09-20T20:04:17.224Z,21.70
2018-09-20T20:09:36.211Z,21.80
2018-09-20T20:12:04.857Z,21.60
2018-09-20T20:14:33.463Z,21.50
2018-09-20T20:17:02.269Z,21.40
2018-09-20T20:19:30.992Z,21.40
2018-09-20T20:22:00.994Z,21.40
2018-09-20T20:24:29.608Z,21.30
2018-09-20T20:26:58.993Z,21.20
2018-09-20T20:29:27.541Z,21.00
2018-09-20T20:31:56.099Z,21.00
2018-09-20T20:34:24.674Z,20.90
2018-09-20T20:36:54.979Z,20.90
2018-09-20T20:39:23.583Z,20.90
2018-09-20T20:41:52.135Z,20.70
2018-09-20T20:44:20.688Z,20.60
2018-09-20T20:46:49.362Z,20.50
2018-09-20T20:49:18.120Z,20.40
2018-09-20T20:51:48.748Z,20.30
2018-09-20T20:54:17.345Z,20.20
2018-09-20T20:56:46.051Z,20.20
2018-09-20T20:59:14.630Z,20.20
2018-09-20T21:01:43.219Z,20.10
2018-09-20T21:04:12.733Z,20.10
2018-09-20T21:06:41.434Z,20.10
2018-09-20T21:09:11.055Z,20.10
2018-09-20T21:11:39.613Z,20.10
2018-09-20T21:14:08.187Z,20.10
2018-09-20T21:16:36.737Z,20.00
2018-09-20T21:19:05.358Z,19.90
2018-09-20T21:21:34.065Z,19.90
2018-09-20T21:24:02.786Z,19.80
2018-09-20T21:26:31.445Z,19.80
2018-09-20T21:29:00.709Z,19.80
2018-09-20T21:31:30.193Z,19.70
2018-09-20T21:33:58.815Z,19.70
2018-09-20T21:36:27.516Z,19.70
2018-09-20T21:38:56.432Z,19.60
2018-09-20T21:41:24.998Z,19.60
2018-09-20T21:43:55.615Z,19.50
2018-09-20T21:46:24.200Z,19.50
2018-09-20T21:48:53.706Z,19.50
2018-09-20T21:51:24.336Z,19.50
2018-09-20T21:53:52.896Z,19.50
2018-09-20T21:57:00.085Z,19.40
2018-09-20T21:59:28.750Z,19.30
